This is the latest recevied weather packets stored in our database for station/object IT9FBN-3. If no packets are shown the sender has not sent any weather packets the latest 10 day(s).
| Time | Temp. | Humidity | Pressure | Rain* | Wind** | Luminosity | Snow |
|---|---|---|---|---|---|---|---|
| 1778161503 | 23.33° C | 49% | 1010.4 hPa | 0 mm | - | - | - |
| 1778161203 | 23.33° C | 47% | 1010.1 hPa | 0 mm | - | - | - |
| 1778160903 | 23.89° C | 45% | 1010.3 hPa | 0 mm | - | - | - |
| 1778160603 | 23.33° C | 47% | 1010.2 hPa | 0 mm | - | - | - |
| 1778160303 | 23.33° C | 46% | 1010.3 hPa | 0 mm | - | - | - |
| 1778160003 | 23.33° C | 47% | 1010.4 hPa | 0 mm | - | - | - |
| 1778159703 | 22.78° C | 46% | 1010.3 hPa | 0 mm | - | - | - |
| 1778159403 | 22.78° C | 46% | 1010.4 hPa | 0 mm | - | - | - |
| 1778159103 | 22.78° C | 47% | 1010.6 hPa | 0 mm | - | - | - |
| 1778158803 | 22.78° C | 48% | 1010.7 hPa | 0 mm | - | - | - |
| 1778158503 | 22.78° C | 48% | 1010.7 hPa | 0 mm | - | - | - |
| 1778158203 | 22.22° C | 48% | 1010.5 hPa | 0 mm | - | - | - |
| 1778157903 | 22.78° C | 48% | 1010.8 hPa | 0 mm | - | - | - |
| 1778157603 | 22.78° C | 49% | 1010.7 hPa | 0 mm | - | - | - |
| 1778157303 | 22.22° C | 49% | 1010.6 hPa | 0 mm | - | - | - |
| 1778157003 | 22.78° C | 49% | 1010.5 hPa | 0 mm | - | - | - |
| 1778156703 | 22.78° C | 49% | 1010.5 hPa | 0 mm | - | - | - |
| 1778156403 | 22.78° C | 48% | 1010.4 hPa | 0 mm | - | - | - |
| 1778094902 | 18.89° C | 61% | 1012.4 hPa | 0 mm | - | - | - |
| 1778094602 | 18.89° C | 61% | 1012.3 hPa | 0 mm | - | - | - |
| 1778094303 | 18.89° C | 60% | 1012.2 hPa | 0 mm | - | - | - |
| 1778094002 | 18.89° C | 59% | 1012.2 hPa | 0 mm | - | - | - |
| 1778093702 | 18.89° C | 59% | 1012.3 hPa | 0 mm | - | - | - |
| 1778093402 | 18.89° C | 63% | 1012.3 hPa | 0 mm | - | - | - |
| 1778093103 | 18.89° C | 64% | 1011.9 hPa | 0 mm | - | - | - |
* Rain latest hour (hover to see other rain measurements)
** Current wind speed in m/s (hover to see current wind gust speed)